createdAt,value
2023-02-17T00:01:21.710Z,10.50
2023-02-17T00:03:50.181Z,11.93
2023-02-17T00:06:21.182Z,10.07
2023-02-17T00:08:49.054Z,9.57
2023-02-17T00:11:16.960Z,10.33
2023-02-17T00:13:44.232Z,12.07
2023-02-17T00:16:23.446Z,11.07
2023-02-17T00:19:00.280Z,13.93
2023-02-17T00:21:31.961Z,10.40
2023-02-17T00:23:59.426Z,9.27
2023-02-17T00:26:26.253Z,9.87
2023-02-17T00:28:53.258Z,10.43
2023-02-17T00:31:23.437Z,9.07
2023-02-17T00:33:50.528Z,9.23
2023-02-17T00:36:20.016Z,8.40
2023-02-17T00:38:48.741Z,11.00
2023-02-17T00:41:18.280Z,10.90
2023-02-17T00:43:46.357Z,8.97
2023-02-17T00:46:13.435Z,9.13
2023-02-17T00:48:41.535Z,9.33
2023-02-17T00:51:09.536Z,10.70
2023-02-17T00:53:36.696Z,8.50
2023-02-17T00:56:04.405Z,8.30
2023-02-17T00:58:31.385Z,8.70
2023-02-17T01:00:58.836Z,9.27
2023-02-17T01:03:27.217Z,9.07
2023-02-17T01:05:55.568Z,10.27
2023-02-17T01:08:24.372Z,8.77
2023-02-17T01:10:52.660Z,11.00
2023-02-17T01:13:20.140Z,9.50
2023-02-17T01:15:51.434Z,9.47
2023-02-17T01:18:21.662Z,9.30
2023-02-17T01:20:48.603Z,10.33
2023-02-17T01:23:18.734Z,9.63
2023-02-17T01:25:49.026Z,8.80
2023-02-17T01:28:20.676Z,9.13
2023-02-17T01:30:49.088Z,9.77
2023-02-17T01:33:16.096Z,8.87
2023-02-17T01:35:43.223Z,8.90
2023-02-17T01:38:10.054Z,11.13
2023-02-17T01:40:36.995Z,9.97
2023-02-17T01:43:03.875Z,9.90
2023-02-17T01:45:45.705Z,10.27
2023-02-17T01:48:18.572Z,9.23
2023-02-17T01:50:54.068Z,9.03
2023-02-17T01:53:29.532Z,9.50
2023-02-17T01:55:57.044Z,11.00
2023-02-17T01:58:26.972Z,9.77
2023-02-17T02:00:59.218Z,11.10
2023-02-17T02:03:28.278Z,10.07
2023-02-17T02:05:55.998Z,10.33
2023-02-17T02:08:22.827Z,9.80
2023-02-17T02:10:49.608Z,9.70
2023-02-17T02:13:16.651Z,13.73
2023-02-17T02:16:25.172Z,8.63
2023-02-17T02:19:04.652Z,8.80
2023-02-17T02:22:13.513Z,13.90
2023-02-17T02:25:13.783Z,8.87
2023-02-17T02:28:22.774Z,9.07
2023-02-17T02:31:15.891Z,9.90
2023-02-17T02:33:59.523Z,8.17
2023-02-17T02:36:35.243Z,8.90
2023-02-17T02:39:15.947Z,8.80
2023-02-17T02:41:53.311Z,8.90
2023-02-17T02:44:21.779Z,9.60
2023-02-17T02:47:24.416Z,8.63
2023-02-17T02:49:51.304Z,8.93
2023-02-17T02:52:36.197Z,8.50
2023-02-17T02:55:31.096Z,8.20
2023-02-17T02:58:30.481Z,8.80
2023-02-17T03:01:06.788Z,8.50
2023-02-17T03:04:08.464Z,8.40
2023-02-17T03:07:01.673Z,8.40
2023-02-17T03:09:29.924Z,8.17
2023-02-17T03:11:58.716Z,7.87
2023-02-17T03:14:28.368Z,8.60
2023-02-17T03:16:55.404Z,8.50
2023-02-17T03:19:25.500Z,8.13
2023-02-17T03:22:28.868Z,7.93
2023-02-17T03:24:55.586Z,8.20
2023-02-17T03:27:22.318Z,8.67
2023-02-17T03:29:49.196Z,7.87
2023-02-17T03:32:16.017Z,9.57
2023-02-17T03:34:42.764Z,10.83
2023-02-17T03:37:09.528Z,8.83
2023-02-17T03:39:36.952Z,8.27
2023-02-17T03:42:03.756Z,8.70
2023-02-17T03:44:30.592Z,8.20
2023-02-17T03:46:57.387Z,8.77
2023-02-17T03:49:24.193Z,8.63
2023-02-17T03:51:51.320Z,8.53
2023-02-17T03:54:18.049Z,8.07
2023-02-17T03:56:44.969Z,8.80
2023-02-17T03:59:11.707Z,8.13
2023-02-17T04:01:38.550Z,7.90
2023-02-17T04:04:05.475Z,8.60
2023-02-17T04:06:32.366Z,7.93
2023-02-17T04:08:59.136Z,8.87
2023-02-17T04:11:26.203Z,7.97
2023-02-17T04:13:52.972Z,7.67
2023-02-17T04:16:19.752Z,8.00
2023-02-17T04:18:46.514Z,8.17
2023-02-17T04:21:13.264Z,7.97
2023-02-17T04:23:40.130Z,7.90
2023-02-17T04:26:09.000Z,9.07
2023-02-17T04:28:39.850Z,7.67
2023-02-17T04:31:06.802Z,7.53
2023-02-17T04:33:34.500Z,9.37
2023-02-17T04:36:01.827Z,7.70
2023-02-17T04:38:32.049Z,7.60
2023-02-17T04:41:00.483Z,8.27
2023-02-17T04:43:28.117Z,7.80
2023-02-17T04:45:55.441Z,6.57
2023-02-17T04:48:22.894Z,7.30
2023-02-17T04:50:49.804Z,7.87
2023-02-17T04:53:16.994Z,7.00
2023-02-17T04:55:44.054Z,8.30
2023-02-17T04:58:10.994Z,7.43
2023-02-17T05:00:38.003Z,7.40
2023-02-17T05:03:05.142Z,7.53
2023-02-17T05:05:32.071Z,7.53
2023-02-17T05:07:58.827Z,7.50
2023-02-17T05:10:25.662Z,7.93
2023-02-17T05:12:52.574Z,7.90
2023-02-17T05:15:20.632Z,7.37
2023-02-17T05:17:47.362Z,7.23
2023-02-17T05:20:14.495Z,8.23
2023-02-17T05:22:41.392Z,6.40
2023-02-17T05:25:08.456Z,6.47
2023-02-17T05:27:35.383Z,7.57
2023-02-17T05:30:02.406Z,6.20
2023-02-17T05:32:29.243Z,7.33
2023-02-17T05:34:55.991Z,7.93
2023-02-17T05:37:22.821Z,7.57
2023-02-17T05:39:49.617Z,7.10
2023-02-17T05:42:16.432Z,7.85
2023-02-17T05:44:43.192Z,7.70
2023-02-17T05:47:09.976Z,6.67
2023-02-17T05:49:36.736Z,6.63
2023-02-17T05:52:03.734Z,6.50
2023-02-17T05:54:30.543Z,6.63
2023-02-17T05:56:57.298Z,7.57
2023-02-17T05:59:24.448Z,8.07
2023-02-17T06:01:51.203Z,6.80
2023-02-17T06:04:17.977Z,6.43
2023-02-17T06:06:44.814Z,6.43
2023-02-17T06:09:11.520Z,7.03
2023-02-17T06:11:38.582Z,7.13
2023-02-17T06:14:05.331Z,9.87
2023-02-17T06:16:32.114Z,6.97
2023-02-17T06:19:00.144Z,6.70
2023-02-17T06:21:26.863Z,6.93
2023-02-17T06:23:53.665Z,6.40
2023-02-17T06:26:20.526Z,7.17
2023-02-17T06:28:47.415Z,6.97
2023-02-17T06:31:14.492Z,7.33
2023-02-17T06:33:41.308Z,6.80
2023-02-17T06:36:08.584Z,7.57
2023-02-17T06:38:35.493Z,6.37
2023-02-17T06:41:02.319Z,6.40
2023-02-17T06:43:29.025Z,7.90
2023-02-17T06:45:55.902Z,6.77
2023-02-17T06:48:22.702Z,6.80
2023-02-17T06:50:50.290Z,6.20
2023-02-17T06:53:17.050Z,6.57
2023-02-17T06:55:44.855Z,6.60
2023-02-17T06:58:11.596Z,6.57
2023-02-17T07:00:38.730Z,7.00
2023-02-17T07:03:05.728Z,10.27
2023-02-17T07:05:36.388Z,7.30
2023-02-17T07:08:04.498Z,7.77
2023-02-17T07:10:31.958Z,6.87
2023-02-17T07:12:58.925Z,9.70
2023-02-17T07:27:10.892Z,6.23
2023-02-17T07:30:41.933Z,6.40
2023-02-17T07:54:34.676Z,8.47
2023-02-17T07:57:22.915Z,5.60
2023-02-17T08:00:10.822Z,6.00
2023-02-17T08:02:52.166Z,5.83
2023-02-17T08:05:19.133Z,5.60
2023-02-17T08:07:46.110Z,5.80
2023-02-17T08:10:32.222Z,5.37
2023-02-17T08:13:18.117Z,5.77
2023-02-17T08:16:01.024Z,5.10
2023-02-17T08:18:38.416Z,5.83
2023-02-17T08:21:27.613Z,6.13
2023-02-17T08:24:00.449Z,5.23
2023-02-17T08:26:27.312Z,4.77
2023-02-17T08:28:54.027Z,4.70
2023-02-17T08:31:32.968Z,4.50
2023-02-17T08:34:07.114Z,5.77
2023-02-17T08:36:37.296Z,5.20
2023-02-17T08:39:10.122Z,4.60
2023-02-17T08:41:39.292Z,4.57
2023-02-17T08:44:14.225Z,4.87
2023-02-17T08:46:41.418Z,4.83
2023-02-17T08:49:08.761Z,5.00
2023-02-17T08:51:36.740Z,4.47
2023-02-17T08:54:06.350Z,4.60
2023-02-17T08:56:34.326Z,4.50
2023-02-17T08:59:01.429Z,4.93
2023-02-17T09:01:28.426Z,4.37
2023-02-17T09:03:57.321Z,4.43
2023-02-17T09:06:24.753Z,4.73
2023-02-17T09:08:51.494Z,4.30
2023-02-17T09:11:20.797Z,5.17
2023-02-17T09:13:47.589Z,5.03
2023-02-17T09:16:14.707Z,5.00
2023-02-17T09:18:41.614Z,4.83
2023-02-17T09:21:14.086Z,4.40
2023-02-17T09:23:41.338Z,4.70
2023-02-17T09:26:12.693Z,4.80
2023-02-17T09:28:40.049Z,5.10
2023-02-17T09:31:23.627Z,4.13
2023-02-17T09:33:51.277Z,3.63
2023-02-17T09:36:26.498Z,4.63
2023-02-17T09:38:54.224Z,3.80
2023-02-17T09:41:51.796Z,4.37
2023-02-17T09:44:35.420Z,4.50
2023-02-17T09:47:20.590Z,4.10
2023-02-17T09:50:12.075Z,4.30
2023-02-17T09:53:11.156Z,4.80
2023-02-17T09:55:47.840Z,3.63
2023-02-17T09:58:23.844Z,4.10
2023-02-17T10:01:04.601Z,3.73
2023-02-17T10:04:13.258Z,3.27
2023-02-17T10:06:46.061Z,3.10
2023-02-17T10:09:34.370Z,2.90
2023-02-17T10:12:14.251Z,4.73
2023-02-17T10:15:04.244Z,4.20
2023-02-17T10:17:40.449Z,2.60
2023-02-17T10:20:17.584Z,3.00
2023-02-17T10:22:52.749Z,2.60
2023-02-17T10:25:38.122Z,2.33
2023-02-17T10:28:22.799Z,2.70
2023-02-17T10:31:02.178Z,2.60
2023-02-17T10:33:56.982Z,2.13
2023-02-17T10:36:53.516Z,2.03
2023-02-17T10:39:49.162Z,3.50
2023-02-17T10:42:32.889Z,2.17
2023-02-17T10:45:51.204Z,2.60
2023-02-17T10:48:24.646Z,2.10
2023-02-17T10:50:53.819Z,2.33
2023-02-17T10:53:30.079Z,2.30
2023-02-17T10:56:14.499Z,2.20
2023-02-17T10:58:56.098Z,1.98
2023-02-17T11:01:26.232Z,2.13
2023-02-17T11:04:10.650Z,1.92
2023-02-17T11:06:48.948Z,2.72
2023-02-17T11:09:21.732Z,1.55
2023-02-17T11:11:59.029Z,1.85
2023-02-17T11:14:33.109Z,2.33
2023-02-17T11:17:12.413Z,2.15
2023-02-17T11:19:39.201Z,1.73
2023-02-17T11:22:38.550Z,1.80
2023-02-17T11:25:24.251Z,1.80
2023-02-17T11:28:04.183Z,2.83
2023-02-17T11:30:34.832Z,3.17
2023-02-17T11:33:16.423Z,1.70
2023-02-17T11:35:58.678Z,5.87
2023-02-17T11:38:32.960Z,2.00
2023-02-17T11:41:04.470Z,1.73
2023-02-17T11:43:33.078Z,1.53
2023-02-17T11:46:12.750Z,1.70
2023-02-17T11:49:04.006Z,2.63
2023-02-17T11:51:39.559Z,3.97
2023-02-17T11:54:45.769Z,3.80
2023-02-17T11:57:40.700Z,1.87
2023-02-17T12:00:20.625Z,2.10
2023-02-17T12:03:36.453Z,2.43
2023-02-17T12:06:20.964Z,4.47
2023-02-17T12:08:59.349Z,2.73
2023-02-17T12:11:37.215Z,2.27
2023-02-17T12:14:25.242Z,2.67
2023-02-17T12:17:21.982Z,2.00
2023-02-17T12:20:24.046Z,1.90
2023-02-17T12:23:24.560Z,2.50
2023-02-17T12:26:12.663Z,2.90
2023-02-17T12:29:02.310Z,2.10
2023-02-17T12:32:05.947Z,1.93
2023-02-17T12:34:46.290Z,2.13
2023-02-17T12:37:21.729Z,3.10
2023-02-17T12:40:06.636Z,2.20
2023-02-17T12:42:53.728Z,2.87
2023-02-17T12:45:27.749Z,5.67
2023-02-17T12:48:06.707Z,2.87
2023-02-17T12:50:43.418Z,2.87
2023-02-17T12:53:29.085Z,2.50
2023-02-17T12:56:04.853Z,2.07
2023-02-17T12:58:33.375Z,2.10
2023-02-17T13:01:18.387Z,2.00
2023-02-17T13:03:46.123Z,2.80
2023-02-17T13:06:36.702Z,1.87
2023-02-17T13:09:15.155Z,2.23
2023-02-17T13:11:41.986Z,2.00
2023-02-17T13:14:57.245Z,4.67
2023-02-17T13:17:35.388Z,2.37
2023-02-17T13:20:15.107Z,4.10
2023-02-17T13:23:28.296Z,2.83
2023-02-17T13:26:25.997Z,3.73
2023-02-17T13:29:07.900Z,2.95
2023-02-17T13:31:53.834Z,4.43
2023-02-17T13:34:42.253Z,5.43
2023-02-17T13:37:35.321Z,5.00
2023-02-17T13:40:24.085Z,2.57
2023-02-17T13:43:08.970Z,4.03
2023-02-17T13:46:04.606Z,3.10
2023-02-17T13:48:34.858Z,3.40
2023-02-17T13:51:07.716Z,3.90
2023-02-17T13:53:51.539Z,3.53
2023-02-17T13:56:28.421Z,4.27
2023-02-17T13:59:07.094Z,4.00
2023-02-17T14:01:40.580Z,3.83
2023-02-17T14:04:26.943Z,4.60
2023-02-17T14:06:57.382Z,5.50
2023-02-17T14:09:32.180Z,3.47
2023-02-17T14:12:03.575Z,4.53
2023-02-17T14:14:38.155Z,3.30
2023-02-17T14:17:26.787Z,5.50
2023-02-17T14:19:53.563Z,3.33
2023-02-17T14:22:35.358Z,3.17
2023-02-17T14:25:14.092Z,4.23
2023-02-17T14:27:47.585Z,3.03
2023-02-17T14:30:45.837Z,3.53
2023-02-17T14:33:16.069Z,3.93
2023-02-17T14:35:54.650Z,4.57
2023-02-17T14:38:37.247Z,3.40
2023-02-17T14:41:05.863Z,4.00
2023-02-17T14:43:33.067Z,2.23
2023-02-17T14:45:59.952Z,3.53
2023-02-17T14:48:28.003Z,3.80
2023-02-17T14:50:57.169Z,4.33
2023-02-17T14:53:29.527Z,2.43
2023-02-17T14:56:04.649Z,2.97
2023-02-17T14:58:32.094Z,2.07
2023-02-17T15:01:00.285Z,2.33
2023-02-17T15:03:27.871Z,3.57
2023-02-17T15:05:58.619Z,3.43
2023-02-17T15:08:41.643Z,2.20
2023-02-17T15:11:27.885Z,2.20
2023-02-17T15:14:24.874Z,2.40
2023-02-17T15:16:55.125Z,4.13
2023-02-17T15:22:44.400Z,2.07
2023-02-17T15:25:19.176Z,3.30
2023-02-17T15:27:46.779Z,4.03
2023-02-17T15:30:18.161Z,2.00
2023-02-17T15:32:46.612Z,5.40
2023-02-17T15:35:20.039Z,3.70
2023-02-17T15:37:53.721Z,4.57
2023-02-17T15:40:27.448Z,6.47
2023-02-17T15:42:57.711Z,3.00
2023-02-17T15:45:40.611Z,4.97
2023-02-17T15:54:12.950Z,3.40
2023-02-17T16:00:20.228Z,4.40
2023-02-17T16:13:20.917Z,4.40
2023-02-17T16:37:14.146Z,2.00
2023-02-17T16:40:02.340Z,2.30
2023-02-17T16:42:46.254Z,3.10
2023-02-17T16:45:47.653Z,2.80
2023-02-17T16:48:28.191Z,3.30
2023-02-17T16:51:12.255Z,4.07
2023-02-17T16:53:53.896Z,4.23
2023-02-17T16:56:41.539Z,3.10
2023-02-17T16:59:21.377Z,3.00
2023-02-17T17:01:51.197Z,2.37
2023-02-17T17:04:18.268Z,3.77
2023-02-17T17:06:52.098Z,2.80
2023-02-17T17:09:28.704Z,3.60
2023-02-17T17:11:56.109Z,3.17
2023-02-17T17:17:21.786Z,2.50
2023-02-17T17:20:00.129Z,5.20
2023-02-17T17:22:36.444Z,3.30
2023-02-17T17:28:39.198Z,2.83
2023-02-17T18:25:31.888Z,6.00
2023-02-17T18:28:36.006Z,5.13
2023-02-17T20:29:38.162Z,5.70
2023-02-17T20:33:33.188Z,6.13
2023-02-17T20:36:26.314Z,5.90
2023-02-17T21:01:45.116Z,5.60
2023-02-17T21:18:23.804Z,6.37
2023-02-17T21:22:45.678Z,6.70
2023-02-17T21:25:10.452Z,6.60
2023-02-17T21:27:37.742Z,7.67
2023-02-17T21:30:13.327Z,8.00
2023-02-17T21:32:41.417Z,9.03
2023-02-17T21:35:11.814Z,7.80
2023-02-17T21:37:43.182Z,7.60
2023-02-17T21:40:11.338Z,7.30
2023-02-17T21:42:57.860Z,7.47
2023-02-17T21:45:25.717Z,6.90
2023-02-17T21:47:52.735Z,6.90
2023-02-17T21:50:21.255Z,7.67
2023-02-17T21:52:48.184Z,7.70
2023-02-17T21:55:14.956Z,6.77
2023-02-17T21:57:41.711Z,6.83
2023-02-17T22:00:09.140Z,6.27
2023-02-17T22:02:36.607Z,7.17
2023-02-17T22:05:04.080Z,6.43
2023-02-17T22:07:31.086Z,6.87
2023-02-17T22:09:59.859Z,6.53
2023-02-17T22:12:27.329Z,6.87
2023-02-17T22:14:54.043Z,7.07
2023-02-17T22:17:20.811Z,6.33
2023-02-17T22:19:47.586Z,7.63
2023-02-17T22:22:14.341Z,7.30
2023-02-17T22:24:41.079Z,6.97
2023-02-17T22:27:07.885Z,6.80
2023-02-17T22:29:34.625Z,7.40
2023-02-17T22:32:01.500Z,8.27
2023-02-17T22:34:37.232Z,7.67
2023-02-17T22:37:07.196Z,7.50
2023-02-17T22:39:35.643Z,8.17
2023-02-17T22:42:11.496Z,7.67
2023-02-17T22:44:38.589Z,7.20
2023-02-17T22:47:05.827Z,7.87
2023-02-17T22:49:33.073Z,7.40
2023-02-17T22:52:02.864Z,7.67
2023-02-17T22:55:08.493Z,8.10
2023-02-17T23:01:43.870Z,7.33
2023-02-17T23:04:36.947Z,8.40
2023-02-17T23:15:55.200Z,8.00
2023-02-17T23:22:22.638Z,7.57
2023-02-17T23:25:04.055Z,7.57
